sensor_id;sensor_type;location;lat;lon;timestamp;P1;durP1;ratioP1;P2;durP2;ratioP2
2544;SDS011;36212;48.838;9.142;2023-12-04T00:01:03;22.38;;;19.90;;
2544;SDS011;36212;48.838;9.142;2023-12-04T00:03:36;22.92;;;19.50;;
2544;SDS011;36212;48.838;9.142;2023-12-04T00:06:11;22.20;;;19.05;;
2544;SDS011;36212;48.838;9.142;2023-12-04T00:08:44;21.67;;;19.10;;
2544;SDS011;36212;48.838;9.142;2023-12-04T00:11:17;20.70;;;18.50;;
2544;SDS011;36212;48.838;9.142;2023-12-04T00:13:50;23.20;;;19.30;;
2544;SDS011;36212;48.838;9.142;2023-12-04T00:16:23;23.58;;;20.58;;
2544;SDS011;36212;48.838;9.142;2023-12-04T00:18:56;24.40;;;21.80;;
2544;SDS011;36212;48.838;9.142;2023-12-04T00:21:28;29.15;;;21.75;;
2544;SDS011;36212;48.838;9.142;2023-12-04T00:24:01;30.88;;;23.55;;
2544;SDS011;36212;48.838;9.142;2023-12-04T00:26:34;34.38;;;21.20;;
2544;SDS011;36212;48.838;9.142;2023-12-04T00:29:07;25.42;;;19.33;;
2544;SDS011;36212;48.838;9.142;2023-12-04T00:31:39;22.27;;;18.40;;
2544;SDS011;36212;48.838;9.142;2023-12-04T00:34:12;22.70;;;19.00;;
2544;SDS011;36212;48.838;9.142;2023-12-04T00:36:44;20.00;;;18.00;;
2544;SDS011;36212;48.838;9.142;2023-12-04T00:39:17;21.45;;;17.90;;
2544;SDS011;36212;48.838;9.142;2023-12-04T00:41:49;22.58;;;17.50;;
2544;SDS011;36212;48.838;9.142;2023-12-04T00:44:21;26.67;;;19.10;;
2544;SDS011;36212;48.838;9.142;2023-12-04T00:46:54;21.48;;;17.27;;
2544;SDS011;36212;48.838;9.142;2023-12-04T00:49:26;23.00;;;19.48;;
2544;SDS011;36212;48.838;9.142;2023-12-04T00:51:59;21.02;;;18.83;;
2544;SDS011;36212;48.838;9.142;2023-12-04T00:54:31;23.65;;;19.02;;
2544;SDS011;36212;48.838;9.142;2023-12-04T00:57:04;22.50;;;19.23;;
2544;SDS011;36212;48.838;9.142;2023-12-04T00:59:37;18.27;;;16.27;;
2544;SDS011;36212;48.838;9.142;2023-12-04T01:02:09;23.13;;;18.95;;
2544;SDS011;36212;48.838;9.142;2023-12-04T01:04:42;25.67;;;20.30;;
2544;SDS011;36212;48.838;9.142;2023-12-04T01:07:15;24.55;;;19.05;;
2544;SDS011;36212;48.838;9.142;2023-12-04T01:09:47;21.42;;;18.20;;
2544;SDS011;36212;48.838;9.142;2023-12-04T01:12:20;20.80;;;18.83;;
2544;SDS011;36212;48.838;9.142;2023-12-04T01:14:53;22.38;;;17.70;;
2544;SDS011;36212;48.838;9.142;2023-12-04T01:17:25;23.50;;;18.50;;
2544;SDS011;36212;48.838;9.142;2023-12-04T01:19:58;24.20;;;18.77;;
2544;SDS011;36212;48.838;9.142;2023-12-04T01:22:30;20.48;;;18.27;;
2544;SDS011;36212;48.838;9.142;2023-12-04T01:25:03;21.95;;;19.65;;
2544;SDS011;36212;48.838;9.142;2023-12-04T01:27:36;23.00;;;19.35;;
2544;SDS011;36212;48.838;9.142;2023-12-04T01:30:10;20.77;;;18.67;;
2544;SDS011;36212;48.838;9.142;2023-12-04T01:32:44;21.35;;;18.67;;
2544;SDS011;36212;48.838;9.142;2023-12-04T01:35:16;22.10;;;18.75;;
2544;SDS011;36212;48.838;9.142;2023-12-04T01:37:49;22.88;;;20.13;;
2544;SDS011;36212;48.838;9.142;2023-12-04T01:40:22;22.17;;;17.92;;
2544;SDS011;36212;48.838;9.142;2023-12-04T01:42:54;20.63;;;18.63;;
2544;SDS011;36212;48.838;9.142;2023-12-04T01:45:27;23.65;;;19.67;;
2544;SDS011;36212;48.838;9.142;2023-12-04T01:47:59;22.77;;;19.88;;
2544;SDS011;36212;48.838;9.142;2023-12-04T01:50:33;20.35;;;18.25;;
2544;SDS011;36212;48.838;9.142;2023-12-04T01:53:07;19.00;;;16.88;;
2544;SDS011;36212;48.838;9.142;2023-12-04T01:55:40;18.42;;;16.50;;
2544;SDS011;36212;48.838;9.142;2023-12-04T01:58:13;23.70;;;19.60;;
2544;SDS011;36212;48.838;9.142;2023-12-04T02:00:46;20.45;;;17.27;;
2544;SDS011;36212;48.838;9.142;2023-12-04T02:03:18;19.90;;;17.77;;
2544;SDS011;36212;48.838;9.142;2023-12-04T02:05:51;20.17;;;16.80;;
2544;SDS011;36212;48.838;9.142;2023-12-04T02:08:27;18.13;;;15.93;;
2544;SDS011;36212;48.838;9.142;2023-12-04T02:11:00;18.50;;;16.05;;
2544;SDS011;36212;48.838;9.142;2023-12-04T02:13:33;23.02;;;17.98;;
2544;SDS011;36212;48.838;9.142;2023-12-04T02:16:05;17.73;;;15.90;;
2544;SDS011;36212;48.838;9.142;2023-12-04T02:18:44;23.40;;;19.65;;
2544;SDS011;36212;48.838;9.142;2023-12-04T02:21:17;21.67;;;19.02;;
2544;SDS011;36212;48.838;9.142;2023-12-04T02:23:51;23.25;;;19.52;;
2544;SDS011;36212;48.838;9.142;2023-12-04T02:26:27;21.20;;;16.73;;
2544;SDS011;36212;48.838;9.142;2023-12-04T02:29:11;20.17;;;17.45;;
2544;SDS011;36212;48.838;9.142;2023-12-04T02:31:53;24.80;;;18.17;;
2544;SDS011;36212;48.838;9.142;2023-12-04T02:34:29;22.08;;;17.17;;
2544;SDS011;36212;48.838;9.142;2023-12-04T02:37:06;20.45;;;18.25;;
2544;SDS011;36212;48.838;9.142;2023-12-04T02:39:41;18.88;;;16.45;;
2544;SDS011;36212;48.838;9.142;2023-12-04T02:42:14;25.40;;;19.05;;
2544;SDS011;36212;48.838;9.142;2023-12-04T02:44:49;22.30;;;17.65;;
2544;SDS011;36212;48.838;9.142;2023-12-04T02:47:21;21.15;;;18.70;;
2544;SDS011;36212;48.838;9.142;2023-12-04T02:49:54;19.83;;;17.90;;
2544;SDS011;36212;48.838;9.142;2023-12-04T02:52:26;20.13;;;17.55;;
2544;SDS011;36212;48.838;9.142;2023-12-04T02:54:58;16.88;;;15.25;;
2544;SDS011;36212;48.838;9.142;2023-12-04T02:57:31;18.02;;;16.17;;
2544;SDS011;36212;48.838;9.142;2023-12-04T03:00:04;18.17;;;16.17;;
2544;SDS011;36212;48.838;9.142;2023-12-04T03:02:38;18.27;;;15.65;;
2544;SDS011;36212;48.838;9.142;2023-12-04T03:05:11;21.55;;;16.63;;
2544;SDS011;36212;48.838;9.142;2023-12-04T03:07:43;18.83;;;16.95;;
2544;SDS011;36212;48.838;9.142;2023-12-04T03:10:16;17.60;;;15.10;;
2544;SDS011;36212;48.838;9.142;2023-12-04T03:12:48;19.02;;;16.35;;
2544;SDS011;36212;48.838;9.142;2023-12-04T03:15:21;17.90;;;16.00;;
2544;SDS011;36212;48.838;9.142;2023-12-04T03:17:53;18.40;;;16.48;;
2544;SDS011;36212;48.838;9.142;2023-12-04T03:20:25;19.02;;;16.80;;
2544;SDS011;36212;48.838;9.142;2023-12-04T03:22:58;21.05;;;17.25;;
2544;SDS011;36212;48.838;9.142;2023-12-04T03:25:30;16.70;;;14.38;;
2544;SDS011;36212;48.838;9.142;2023-12-04T03:28:03;19.00;;;16.83;;
2544;SDS011;36212;48.838;9.142;2023-12-04T03:30:35;16.50;;;14.80;;
2544;SDS011;36212;48.838;9.142;2023-12-04T03:33:08;17.40;;;15.50;;
2544;SDS011;36212;48.838;9.142;2023-12-04T03:35:43;16.15;;;14.60;;
2544;SDS011;36212;48.838;9.142;2023-12-04T03:38:15;19.40;;;16.98;;
2544;SDS011;36212;48.838;9.142;2023-12-04T03:40:47;17.65;;;15.30;;
2544;SDS011;36212;48.838;9.142;2023-12-04T03:43:20;18.85;;;16.63;;
2544;SDS011;36212;48.838;9.142;2023-12-04T03:45:52;17.88;;;15.10;;
2544;SDS011;36212;48.838;9.142;2023-12-04T03:48:24;17.48;;;15.20;;
2544;SDS011;36212;48.838;9.142;2023-12-04T03:50:57;21.65;;;16.75;;
2544;SDS011;36212;48.838;9.142;2023-12-04T03:53:30;20.42;;;15.75;;
2544;SDS011;36212;48.838;9.142;2023-12-04T03:56:03;21.48;;;18.77;;
2544;SDS011;36212;48.838;9.142;2023-12-04T03:58:36;21.10;;;17.63;;
2544;SDS011;36212;48.838;9.142;2023-12-04T04:01:10;24.10;;;17.23;;
2544;SDS011;36212;48.838;9.142;2023-12-04T04:03:42;19.58;;;17.63;;
2544;SDS011;36212;48.838;9.142;2023-12-04T04:06:17;18.65;;;16.77;;
2544;SDS011;36212;48.838;9.142;2023-12-04T04:08:50;18.05;;;15.77;;
2544;SDS011;36212;48.838;9.142;2023-12-04T04:11:24;19.25;;;15.98;;
2544;SDS011;36212;48.838;9.142;2023-12-04T04:13:57;18.23;;;16.40;;
2544;SDS011;36212;48.838;9.142;2023-12-04T04:16:29;19.17;;;17.15;;
2544;SDS011;36212;48.838;9.142;2023-12-04T04:19:02;17.02;;;15.23;;
2544;SDS011;36212;48.838;9.142;2023-12-04T04:21:38;16.75;;;14.93;;
2544;SDS011;36212;48.838;9.142;2023-12-04T04:24:12;18.05;;;16.15;;
2544;SDS011;36212;48.838;9.142;2023-12-04T04:26:45;20.30;;;17.30;;
2544;SDS011;36212;48.838;9.142;2023-12-04T04:29:17;17.85;;;15.45;;
2544;SDS011;36212;48.838;9.142;2023-12-04T04:31:49;19.70;;;15.80;;
2544;SDS011;36212;48.838;9.142;2023-12-04T04:34:22;18.92;;;16.23;;
2544;SDS011;36212;48.838;9.142;2023-12-04T04:36:54;23.75;;;18.70;;
2544;SDS011;36212;48.838;9.142;2023-12-04T04:39:26;18.30;;;15.93;;
2544;SDS011;36212;48.838;9.142;2023-12-04T04:41:59;19.42;;;17.42;;
2544;SDS011;36212;48.838;9.142;2023-12-04T04:44:31;19.00;;;15.30;;
2544;SDS011;36212;48.838;9.142;2023-12-04T04:47:03;20.30;;;18.20;;
2544;SDS011;36212;48.838;9.142;2023-12-04T04:49:36;17.13;;;15.20;;
2544;SDS011;36212;48.838;9.142;2023-12-04T04:52:08;18.05;;;16.42;;
2544;SDS011;36212;48.838;9.142;2023-12-04T04:54:40;18.00;;;15.80;;
2544;SDS011;36212;48.838;9.142;2023-12-04T04:57:13;15.60;;;14.10;;
2544;SDS011;36212;48.838;9.142;2023-12-04T04:59:45;16.25;;;14.68;;
2544;SDS011;36212;48.838;9.142;2023-12-04T05:02:18;17.60;;;14.57;;
2544;SDS011;36212;48.838;9.142;2023-12-04T05:04:50;16.85;;;15.15;;
2544;SDS011;36212;48.838;9.142;2023-12-04T05:07:23;15.52;;;13.93;;
2544;SDS011;36212;48.838;9.142;2023-12-04T05:09:57;18.13;;;14.57;;
2544;SDS011;36212;48.838;9.142;2023-12-04T05:12:29;18.02;;;16.02;;
2544;SDS011;36212;48.838;9.142;2023-12-04T05:15:01;20.15;;;16.13;;
2544;SDS011;36212;48.838;9.142;2023-12-04T05:17:34;18.67;;;15.30;;
2544;SDS011;36212;48.838;9.142;2023-12-04T05:20:07;17.70;;;15.30;;
2544;SDS011;36212;48.838;9.142;2023-12-04T05:22:43;15.88;;;14.23;;
2544;SDS011;36212;48.838;9.142;2023-12-04T05:25:16;18.63;;;16.02;;
2544;SDS011;36212;48.838;9.142;2023-12-04T05:27:49;18.30;;;16.30;;
2544;SDS011;36212;48.838;9.142;2023-12-04T05:30:21;19.13;;;17.20;;
2544;SDS011;36212;48.838;9.142;2023-12-04T05:32:56;18.88;;;16.98;;
2544;SDS011;36212;48.838;9.142;2023-12-04T05:35:29;19.60;;;16.90;;
2544;SDS011;36212;48.838;9.142;2023-12-04T05:38:05;19.65;;;17.73;;
2544;SDS011;36212;48.838;9.142;2023-12-04T05:40:41;15.95;;;14.25;;
2544;SDS011;36212;48.838;9.142;2023-12-04T05:43:13;17.92;;;15.65;;
2544;SDS011;36212;48.838;9.142;2023-12-04T05:45:46;18.73;;;15.45;;
2544;SDS011;36212;48.838;9.142;2023-12-04T05:48:22;22.02;;;18.55;;
2544;SDS011;36212;48.838;9.142;2023-12-04T05:50:55;17.77;;;15.48;;
2544;SDS011;36212;48.838;9.142;2023-12-04T05:53:28;18.23;;;16.30;;
2544;SDS011;36212;48.838;9.142;2023-12-04T05:56:01;17.75;;;16.20;;
2544;SDS011;36212;48.838;9.142;2023-12-04T05:58:35;18.95;;;16.80;;
2544;SDS011;36212;48.838;9.142;2023-12-04T06:01:07;19.08;;;17.27;;
2544;SDS011;36212;48.838;9.142;2023-12-04T06:03:40;18.10;;;16.10;;
2544;SDS011;36212;48.838;9.142;2023-12-04T06:06:12;18.63;;;14.88;;
2544;SDS011;36212;48.838;9.142;2023-12-04T06:08:45;18.40;;;16.45;;
2544;SDS011;36212;48.838;9.142;2023-12-04T06:11:17;17.60;;;16.00;;
2544;SDS011;36212;48.838;9.142;2023-12-04T06:13:49;19.95;;;17.63;;
2544;SDS011;36212;48.838;9.142;2023-12-04T06:16:22;18.77;;;15.18;;
2544;SDS011;36212;48.838;9.142;2023-12-04T06:18:54;17.48;;;15.60;;
2544;SDS011;36212;48.838;9.142;2023-12-04T06:21:27;20.75;;;17.02;;
2544;SDS011;36212;48.838;9.142;2023-12-04T06:24:01;21.90;;;16.88;;
2544;SDS011;36212;48.838;9.142;2023-12-04T06:26:40;17.60;;;15.50;;
2544;SDS011;36212;48.838;9.142;2023-12-04T06:29:19;22.55;;;18.30;;
2544;SDS011;36212;48.838;9.142;2023-12-04T06:31:53;19.35;;;16.80;;
2544;SDS011;36212;48.838;9.142;2023-12-04T06:34:26;20.00;;;17.60;;
2544;SDS011;36212;48.838;9.142;2023-12-04T06:36:59;17.92;;;16.02;;
2544;SDS011;36212;48.838;9.142;2023-12-04T06:39:39;18.20;;;16.33;;
2544;SDS011;36212;48.838;9.142;2023-12-04T06:42:15;19.02;;;17.02;;
2544;SDS011;36212;48.838;9.142;2023-12-04T06:44:47;17.35;;;14.70;;
2544;SDS011;36212;48.838;9.142;2023-12-04T06:47:22;21.33;;;15.65;;
2544;SDS011;36212;48.838;9.142;2023-12-04T06:49:55;17.90;;;15.88;;
2544;SDS011;36212;48.838;9.142;2023-12-04T06:52:27;17.23;;;15.32;;
2544;SDS011;36212;48.838;9.142;2023-12-04T06:55:00;18.35;;;15.10;;
2544;SDS011;36212;48.838;9.142;2023-12-04T06:57:33;17.50;;;14.30;;
2544;SDS011;36212;48.838;9.142;2023-12-04T07:00:05;16.02;;;14.43;;
2544;SDS011;36212;48.838;9.142;2023-12-04T07:02:53;16.95;;;15.25;;
2544;SDS011;36212;48.838;9.142;2023-12-04T07:05:25;17.27;;;15.30;;
2544;SDS011;36212;48.838;9.142;2023-12-04T07:07:57;18.17;;;16.48;;
2544;SDS011;36212;48.838;9.142;2023-12-04T07:10:30;18.70;;;15.45;;
2544;SDS011;36212;48.838;9.142;2023-12-04T07:13:06;18.88;;;13.55;;
2544;SDS011;36212;48.838;9.142;2023-12-04T07:15:39;16.58;;;14.88;;
2544;SDS011;36212;48.838;9.142;2023-12-04T07:18:11;19.50;;;17.40;;
2544;SDS011;36212;48.838;9.142;2023-12-04T07:20:44;18.75;;;16.95;;
2544;SDS011;36212;48.838;9.142;2023-12-04T07:23:17;18.27;;;15.07;;
2544;SDS011;36212;48.838;9.142;2023-12-04T07:25:50;17.95;;;15.30;;
2544;SDS011;36212;48.838;9.142;2023-12-04T07:28:23;21.00;;;15.15;;
2544;SDS011;36212;48.838;9.142;2023-12-04T07:30:57;18.00;;;16.10;;
2544;SDS011;36212;48.838;9.142;2023-12-04T07:33:29;18.25;;;16.13;;
2544;SDS011;36212;48.838;9.142;2023-12-04T07:36:02;16.80;;;15.15;;
2544;SDS011;36212;48.838;9.142;2023-12-04T07:38:35;15.88;;;14.27;;
2544;SDS011;36212;48.838;9.142;2023-12-04T07:41:08;16.55;;;14.70;;
2544;SDS011;36212;48.838;9.142;2023-12-04T07:43:41;18.67;;;16.67;;
2544;SDS011;36212;48.838;9.142;2023-12-04T07:46:14;18.00;;;16.20;;
2544;SDS011;36212;48.838;9.142;2023-12-04T07:48:47;15.55;;;13.57;;
2544;SDS011;36212;48.838;9.142;2023-12-04T07:51:20;22.88;;;15.15;;
2544;SDS011;36212;48.838;9.142;2023-12-04T07:53:53;19.00;;;16.58;;
2544;SDS011;36212;48.838;9.142;2023-12-04T07:56:26;18.73;;;16.50;;
2544;SDS011;36212;48.838;9.142;2023-12-04T07:58:58;18.65;;;14.93;;
2544;SDS011;36212;48.838;9.142;2023-12-04T08:01:32;16.33;;;14.05;;
2544;SDS011;36212;48.838;9.142;2023-12-04T08:04:06;19.92;;;15.65;;
2544;SDS011;36212;48.838;9.142;2023-12-04T08:06:39;19.92;;;17.88;;
2544;SDS011;36212;48.838;9.142;2023-12-04T08:09:13;16.05;;;14.30;;
2544;SDS011;36212;48.838;9.142;2023-12-04T08:11:46;18.63;;;15.48;;
2544;SDS011;36212;48.838;9.142;2023-12-04T08:14:19;19.50;;;17.48;;
2544;SDS011;36212;48.838;9.142;2023-12-04T08:16:51;18.10;;;16.15;;
2544;SDS011;36212;48.838;9.142;2023-12-04T08:19:24;18.85;;;16.98;;
2544;SDS011;36212;48.838;9.142;2023-12-04T08:21:57;16.35;;;14.38;;
2544;SDS011;36212;48.838;9.142;2023-12-04T08:24:30;20.02;;;15.02;;
2544;SDS011;36212;48.838;9.142;2023-12-04T08:27:03;17.60;;;15.70;;
2544;SDS011;36212;48.838;9.142;2023-12-04T08:29:36;18.25;;;15.55;;
2544;SDS011;36212;48.838;9.142;2023-12-04T08:32:10;16.10;;;14.45;;
2544;SDS011;36212;48.838;9.142;2023-12-04T08:34:43;17.20;;;15.45;;
2544;SDS011;36212;48.838;9.142;2023-12-04T08:37:16;17.00;;;15.23;;
2544;SDS011;36212;48.838;9.142;2023-12-04T08:39:51;18.88;;;16.98;;
2544;SDS011;36212;48.838;9.142;2023-12-04T08:42:26;17.52;;;14.98;;
2544;SDS011;36212;48.838;9.142;2023-12-04T08:44:59;15.75;;;13.80;;
2544;SDS011;36212;48.838;9.142;2023-12-04T08:47:32;18.73;;;16.65;;
2544;SDS011;36212;48.838;9.142;2023-12-04T08:50:07;16.92;;;15.00;;
2544;SDS011;36212;48.838;9.142;2023-12-04T08:52:41;17.90;;;15.48;;
2544;SDS011;36212;48.838;9.142;2023-12-04T08:55:15;20.48;;;15.90;;
2544;SDS011;36212;48.838;9.142;2023-12-04T08:57:48;16.98;;;15.30;;
2544;SDS011;36212;48.838;9.142;2023-12-04T09:00:21;19.50;;;15.55;;
2544;SDS011;36212;48.838;9.142;2023-12-04T09:02:54;16.33;;;14.63;;
2544;SDS011;36212;48.838;9.142;2023-12-04T09:05:40;18.95;;;15.75;;
2544;SDS011;36212;48.838;9.142;2023-12-04T09:08:14;16.50;;;15.00;;
2544;SDS011;36212;48.838;9.142;2023-12-04T09:10:52;22.00;;;16.15;;
2544;SDS011;36212;48.838;9.142;2023-12-04T09:13:45;17.10;;;14.05;;
2544;SDS011;36212;48.838;9.142;2023-12-04T09:16:19;18.38;;;15.35;;
2544;SDS011;36212;48.838;9.142;2023-12-04T09:18:53;16.15;;;14.43;;
2544;SDS011;36212;48.838;9.142;2023-12-04T09:21:26;17.63;;;15.73;;
2544;SDS011;36212;48.838;9.142;2023-12-04T09:24:01;17.60;;;15.80;;
2544;SDS011;36212;48.838;9.142;2023-12-04T09:26:36;17.65;;;15.85;;
2544;SDS011;36212;48.838;9.142;2023-12-04T09:29:10;19.65;;;15.77;;
2544;SDS011;36212;48.838;9.142;2023-12-04T09:31:47;21.25;;;18.98;;
2544;SDS011;36212;48.838;9.142;2023-12-04T09:34:24;18.00;;;16.10;;
2544;SDS011;36212;48.838;9.142;2023-12-04T09:37:01;18.40;;;16.65;;
2544;SDS011;36212;48.838;9.142;2023-12-04T09:39:43;16.58;;;15.07;;
2544;SDS011;36212;48.838;9.142;2023-12-04T09:42:21;16.65;;;14.70;;
2544;SDS011;36212;48.838;9.142;2023-12-04T09:45:03;17.42;;;15.15;;
2544;SDS011;36212;48.838;9.142;2023-12-04T09:47:42;15.48;;;13.80;;
2544;SDS011;36212;48.838;9.142;2023-12-04T09:50:18;16.73;;;15.13;;
2544;SDS011;36212;48.838;9.142;2023-12-04T09:52:55;16.70;;;15.13;;
2544;SDS011;36212;48.838;9.142;2023-12-04T09:55:40;17.08;;;15.20;;
2544;SDS011;36212;48.838;9.142;2023-12-04T09:58:17;17.77;;;15.98;;
2544;SDS011;36212;48.838;9.142;2023-12-04T10:00:55;18.05;;;14.88;;
2544;SDS011;36212;48.838;9.142;2023-12-04T10:03:34;16.10;;;14.60;;
2544;SDS011;36212;48.838;9.142;2023-12-04T10:06:15;16.13;;;14.70;;
2544;SDS011;36212;48.838;9.142;2023-12-04T10:08:52;16.88;;;14.73;;
2544;SDS011;36212;48.838;9.142;2023-12-04T10:11:28;16.20;;;13.75;;
2544;SDS011;36212;48.838;9.142;2023-12-04T10:14:15;16.10;;;14.50;;
2544;SDS011;36212;48.838;9.142;2023-12-04T10:16:56;16.30;;;13.95;;
2544;SDS011;36212;48.838;9.142;2023-12-04T10:19:44;16.70;;;14.95;;
2544;SDS011;36212;48.838;9.142;2023-12-04T10:22:36;15.85;;;14.35;;
2544;SDS011;36212;48.838;9.142;2023-12-04T10:25:31;16.73;;;15.00;;
2544;SDS011;36212;48.838;9.142;2023-12-04T10:28:10;17.23;;;15.55;;
2544;SDS011;36212;48.838;9.142;2023-12-04T10:30:49;20.52;;;15.32;;
2544;SDS011;36212;48.838;9.142;2023-12-04T10:33:28;17.13;;;15.27;;
2544;SDS011;36212;48.838;9.142;2023-12-04T10:36:11;17.25;;;15.45;;
2544;SDS011;36212;48.838;9.142;2023-12-04T10:39:01;14.75;;;13.27;;
2544;SDS011;36212;48.838;9.142;2023-12-04T10:41:36;15.15;;;12.65;;
2544;SDS011;36212;48.838;9.142;2023-12-04T10:44:09;16.60;;;14.90;;
2544;SDS011;36212;48.838;9.142;2023-12-04T10:46:48;16.92;;;13.73;;
2544;SDS011;36212;48.838;9.142;2023-12-04T10:49:25;16.75;;;14.00;;
2544;SDS011;36212;48.838;9.142;2023-12-04T10:52:05;17.05;;;14.15;;
2544;SDS011;36212;48.838;9.142;2023-12-04T10:54:43;19.85;;;15.32;;
2544;SDS011;36212;48.838;9.142;2023-12-04T10:57:26;19.65;;;14.93;;
2544;SDS011;36212;48.838;9.142;2023-12-04T11:00:07;17.05;;;14.30;;
2544;SDS011;36212;48.838;9.142;2023-12-04T11:02:49;15.90;;;14.20;;
2544;SDS011;36212;48.838;9.142;2023-12-04T11:05:38;16.25;;;14.63;;
2544;SDS011;36212;48.838;9.142;2023-12-04T11:08:18;16.98;;;15.15;;
2544;SDS011;36212;48.838;9.142;2023-12-04T11:13:46;18.88;;;16.50;;
2544;SDS011;36212;48.838;9.142;2023-12-04T11:16:41;17.60;;;15.82;;
2544;SDS011;36212;48.838;9.142;2023-12-04T11:22:34;16.92;;;15.32;;
2544;SDS011;36212;48.838;9.142;2023-12-04T11:25:12;16.83;;;15.13;;
2544;SDS011;36212;48.838;9.142;2023-12-04T11:27:48;18.42;;;16.42;;
2544;SDS011;36212;48.838;9.142;2023-12-04T11:30:22;16.02;;;13.50;;
2544;SDS011;36212;48.838;9.142;2023-12-04T11:32:55;17.58;;;14.85;;
2544;SDS011;36212;48.838;9.142;2023-12-04T11:35:30;15.57;;;14.10;;
2544;SDS011;36212;48.838;9.142;2023-12-04T11:38:04;18.38;;;14.77;;
2544;SDS011;36212;48.838;9.142;2023-12-04T11:40:43;18.63;;;13.98;;
2544;SDS011;36212;48.838;9.142;2023-12-04T11:43:21;17.20;;;15.02;;
2544;SDS011;36212;48.838;9.142;2023-12-04T11:46:08;17.65;;;15.75;;
2544;SDS011;36212;48.838;9.142;2023-12-04T11:48:41;18.60;;;16.65;;
2544;SDS011;36212;48.838;9.142;2023-12-04T11:51:44;17.70;;;15.65;;
2544;SDS011;36212;48.838;9.142;2023-12-04T11:54:18;17.48;;;15.63;;
2544;SDS011;36212;48.838;9.142;2023-12-04T12:00:12;20.13;;;16.10;;
2544;SDS011;36212;48.838;9.142;2023-12-04T12:05:51;18.15;;;16.35;;
2544;SDS011;36212;48.838;9.142;2023-12-04T12:08:25;22.00;;;16.73;;
2544;SDS011;36212;48.838;9.142;2023-12-04T12:11:01;17.13;;;15.23;;
2544;SDS011;36212;48.838;9.142;2023-12-04T12:13:35;16.40;;;14.90;;
2544;SDS011;36212;48.838;9.142;2023-12-04T12:16:11;19.23;;;15.18;;
2544;SDS011;36212;48.838;9.142;2023-12-04T12:18:44;17.75;;;16.05;;
2544;SDS011;36212;48.838;9.142;2023-12-04T12:21:16;16.73;;;15.02;;
2544;SDS011;36212;48.838;9.142;2023-12-04T12:23:50;17.98;;;16.45;;
2544;SDS011;36212;48.838;9.142;2023-12-04T12:26:30;18.20;;;16.08;;
2544;SDS011;36212;48.838;9.142;2023-12-04T12:29:03;15.68;;;14.23;;
2544;SDS011;36212;48.838;9.142;2023-12-04T12:31:40;18.05;;;16.25;;
2544;SDS011;36212;48.838;9.142;2023-12-04T12:34:22;17.55;;;15.85;;
2544;SDS011;36212;48.838;9.142;2023-12-04T12:36:57;18.13;;;16.33;;
2544;SDS011;36212;48.838;9.142;2023-12-04T12:39:32;16.63;;;14.55;;
2544;SDS011;36212;48.838;9.142;2023-12-04T12:42:09;18.83;;;16.92;;
2544;SDS011;36212;48.838;9.142;2023-12-04T12:44:55;15.95;;;14.27;;
2544;SDS011;36212;48.838;9.142;2023-12-04T12:47:34;18.75;;;15.32;;
2544;SDS011;36212;48.838;9.142;2023-12-04T12:50:12;17.77;;;15.98;;
2544;SDS011;36212;48.838;9.142;2023-12-04T12:52:47;19.08;;;17.00;;
2544;SDS011;36212;48.838;9.142;2023-12-04T12:55:24;17.48;;;15.65;;
2544;SDS011;36212;48.838;9.142;2023-12-04T12:57:59;17.70;;;16.08;;
2544;SDS011;36212;48.838;9.142;2023-12-04T13:00:40;16.92;;;15.15;;
2544;SDS011;36212;48.838;9.142;2023-12-04T13:03:16;18.45;;;16.27;;
2544;SDS011;36212;48.838;9.142;2023-12-04T13:05:52;16.70;;;14.80;;
2544;SDS011;36212;48.838;9.142;2023-12-04T13:08:27;18.85;;;16.85;;
2544;SDS011;36212;48.838;9.142;2023-12-04T13:10:59;18.33;;;16.25;;
2544;SDS011;36212;48.838;9.142;2023-12-04T13:13:33;17.23;;;15.57;;
2544;SDS011;36212;48.838;9.142;2023-12-04T13:16:14;18.45;;;16.65;;
2544;SDS011;36212;48.838;9.142;2023-12-04T13:18:47;20.80;;;16.38;;
2544;SDS011;36212;48.838;9.142;2023-12-04T13:21:19;21.38;;;17.75;;
2544;SDS011;36212;48.838;9.142;2023-12-04T13:23:52;18.00;;;16.20;;
2544;SDS011;36212;48.838;9.142;2023-12-04T13:26:25;18.25;;;16.38;;
2544;SDS011;36212;48.838;9.142;2023-12-04T13:28:59;21.20;;;18.30;;
2544;SDS011;36212;48.838;9.142;2023-12-04T13:31:33;19.35;;;17.55;;
2544;SDS011;36212;48.838;9.142;2023-12-04T13:34:07;19.25;;;17.35;;
2544;SDS011;36212;48.838;9.142;2023-12-04T13:36:41;19.85;;;17.85;;
2544;SDS011;36212;48.838;9.142;2023-12-04T13:39:15;20.13;;;18.08;;
2544;SDS011;36212;48.838;9.142;2023-12-04T13:42:17;20.05;;;17.95;;
2544;SDS011;36212;48.838;9.142;2023-12-04T13:45:28;19.23;;;17.25;;
2544;SDS011;36212;48.838;9.142;2023-12-04T13:48:02;24.50;;;18.83;;
2544;SDS011;36212;48.838;9.142;2023-12-04T13:50:35;20.52;;;18.42;;
2544;SDS011;36212;48.838;9.142;2023-12-04T13:53:08;22.42;;;18.80;;
2544;SDS011;36212;48.838;9.142;2023-12-04T13:55:41;25.42;;;20.73;;
2544;SDS011;36212;48.838;9.142;2023-12-04T13:58:42;19.70;;;17.80;;
2544;SDS011;36212;48.838;9.142;2023-12-04T14:01:20;20.73;;;18.63;;
2544;SDS011;36212;48.838;9.142;2023-12-04T14:03:59;21.70;;;19.50;;
2544;SDS011;36212;48.838;9.142;2023-12-04T14:06:35;21.33;;;19.30;;
2544;SDS011;36212;48.838;9.142;2023-12-04T14:09:09;22.90;;;19.85;;
2544;SDS011;36212;48.838;9.142;2023-12-04T14:11:45;21.10;;;18.90;;
2544;SDS011;36212;48.838;9.142;2023-12-04T14:14:18;20.33;;;18.25;;
2544;SDS011;36212;48.838;9.142;2023-12-04T14:16:51;22.38;;;20.00;;
2544;SDS011;36212;48.838;9.142;2023-12-04T14:19:25;22.00;;;19.58;;
2544;SDS011;36212;48.838;9.142;2023-12-04T14:21:58;22.13;;;19.83;;
2544;SDS011;36212;48.838;9.142;2023-12-04T14:24:31;18.95;;;17.15;;
2544;SDS011;36212;48.838;9.142;2023-12-04T14:27:05;21.75;;;19.45;;
2544;SDS011;36212;48.838;9.142;2023-12-04T14:29:38;21.25;;;18.02;;
2544;SDS011;36212;48.838;9.142;2023-12-04T14:32:12;22.27;;;19.63;;
2544;SDS011;36212;48.838;9.142;2023-12-04T14:34:46;21.98;;;19.48;;
2544;SDS011;36212;48.838;9.142;2023-12-04T14:37:19;23.70;;;19.52;;
2544;SDS011;36212;48.838;9.142;2023-12-04T14:39:53;22.10;;;18.40;;
2544;SDS011;36212;48.838;9.142;2023-12-04T14:42:30;21.80;;;19.63;;
2544;SDS011;36212;48.838;9.142;2023-12-04T14:45:07;20.08;;;18.08;;
2544;SDS011;36212;48.838;9.142;2023-12-04T14:47:48;19.92;;;17.17;;
2544;SDS011;36212;48.838;9.142;2023-12-04T14:50:28;22.75;;;19.95;;
2544;SDS011;36212;48.838;9.142;2023-12-04T14:53:01;20.20;;;18.10;;
2544;SDS011;36212;48.838;9.142;2023-12-04T14:56:11;21.27;;;18.90;;
2544;SDS011;36212;48.838;9.142;2023-12-04T14:59:19;21.88;;;19.30;;
2544;SDS011;36212;48.838;9.142;2023-12-04T15:02:37;26.27;;;20.27;;
2544;SDS011;36212;48.838;9.142;2023-12-04T15:05:39;24.52;;;19.95;;
2544;SDS011;36212;48.838;9.142;2023-12-04T15:08:57;25.65;;;19.65;;
2544;SDS011;36212;48.838;9.142;2023-12-04T15:12:13;21.10;;;18.63;;
2544;SDS011;36212;48.838;9.142;2023-12-04T15:15:09;22.35;;;18.33;;
2544;SDS011;36212;48.838;9.142;2023-12-04T15:18:10;19.70;;;16.95;;
2544;SDS011;36212;48.838;9.142;2023-12-04T15:21:09;20.48;;;18.30;;
2544;SDS011;36212;48.838;9.142;2023-12-04T15:23:45;20.42;;;18.15;;
2544;SDS011;36212;48.838;9.142;2023-12-04T15:26:21;20.98;;;18.77;;
2544;SDS011;36212;48.838;9.142;2023-12-04T15:28:55;19.85;;;17.80;;
2544;SDS011;36212;48.838;9.142;2023-12-04T15:31:28;21.02;;;18.02;;
2544;SDS011;36212;48.838;9.142;2023-12-04T15:34:01;24.33;;;21.13;;
2544;SDS011;36212;48.838;9.142;2023-12-04T15:36:36;25.20;;;19.80;;